createdAt,value
2023-01-19T06:32:53.383Z,0.00
2023-01-19T06:33:53.427Z,0.00
2023-01-19T06:34:54.145Z,0.00
2023-01-19T06:35:54.873Z,0.00
2023-01-19T06:36:53.388Z,0.00
2023-01-19T06:37:53.414Z,0.00
2023-01-19T06:38:53.216Z,0.00
2023-01-19T06:39:53.180Z,0.00
2023-01-19T06:42:41.699Z,0.00
2023-01-19T06:43:51.774Z,0.00
2023-01-19T06:46:33.028Z,0.00
2023-01-19T06:47:33.056Z,0.00
2023-01-19T06:49:06.699Z,4.00
2023-01-19T06:49:34.893Z,4.00
2023-01-19T06:50:34.850Z,0.00
2023-01-19T06:51:34.276Z,4.00
2023-01-19T06:52:34.561Z,4.00
2023-01-19T06:53:34.115Z,0.00
2023-01-19T06:54:34.383Z,4.00
2023-01-19T06:55:37.682Z,8.00
2023-01-19T06:56:35.110Z,8.00
2023-01-19T06:57:34.059Z,12.00
2023-01-19T06:58:34.462Z,12.00
2023-01-19T06:59:34.262Z,12.00
2023-01-19T07:00:34.289Z,12.00
2023-01-19T07:01:34.164Z,16.00
2023-01-19T07:02:34.338Z,16.00
2023-01-19T07:03:34.151Z,24.00
2023-01-19T07:04:33.989Z,24.00
2023-01-19T07:05:34.319Z,28.00
2023-01-19T07:06:34.123Z,32.00
2023-01-19T07:07:34.052Z,32.00
2023-01-19T07:08:34.027Z,32.00
2023-01-19T07:09:34.232Z,36.00
2023-01-19T07:11:26.056Z,40.00
2023-01-19T07:11:40.564Z,40.00
2023-01-19T07:12:34.641Z,44.00
2023-01-19T07:13:34.098Z,44.00
2023-01-19T07:14:34.180Z,52.00
2023-01-19T07:15:33.905Z,56.00
2023-01-19T07:16:33.917Z,64.00
2023-01-19T07:17:35.056Z,72.00
2023-01-19T07:18:34.153Z,76.00
2023-01-19T07:19:33.894Z,80.00
2023-01-19T07:20:34.986Z,88.00
2023-01-19T07:21:34.024Z,96.00
2023-01-19T07:22:33.942Z,104.00
2023-01-19T07:23:34.170Z,120.00
2023-01-19T07:24:33.988Z,132.00
2023-01-19T07:25:34.064Z,144.00
2023-01-19T07:26:34.322Z,148.00
2023-01-19T07:27:36.459Z,156.00
2023-01-19T07:28:33.875Z,164.00
2023-01-19T07:29:33.987Z,168.00
2023-01-19T07:30:34.309Z,176.00
2023-01-19T07:31:34.113Z,184.00
2023-01-19T07:32:33.795Z,192.00
2023-01-19T07:33:33.824Z,204.00
2023-01-19T07:34:33.829Z,216.00
2023-01-19T07:35:33.918Z,228.00
2023-01-19T07:36:33.963Z,248.00
2023-01-19T07:37:33.606Z,260.00
2023-01-19T07:38:33.808Z,284.00
2023-01-19T07:39:33.779Z,300.00
2023-01-19T07:40:33.753Z,312.00
2023-01-19T07:41:33.784Z,324.00
2023-01-19T07:42:33.702Z,348.00
2023-01-19T07:43:33.908Z,364.00
2023-01-19T07:44:33.780Z,380.00
2023-01-19T07:45:33.677Z,392.00
2023-01-19T07:46:33.771Z,412.00
2023-01-19T07:47:34.603Z,428.00
2023-01-19T07:48:34.241Z,452.00
2023-01-19T07:49:34.039Z,472.00
2023-01-19T07:50:33.857Z,492.00
2023-01-19T07:51:34.110Z,520.00
2023-01-19T07:52:33.600Z,552.00
2023-01-19T07:53:34.736Z,588.00
2023-01-19T07:54:34.017Z,636.00
2023-01-19T07:55:33.925Z,664.00
2023-01-19T07:56:34.102Z,680.00
2023-01-19T07:57:33.448Z,700.00
2023-01-19T07:58:33.809Z,716.00
2023-01-19T07:59:33.557Z,728.00
2023-01-19T08:00:33.452Z,720.00
2023-01-19T08:01:33.888Z,728.00
2023-01-19T08:02:33.773Z,708.00
2023-01-19T08:03:33.791Z,708.00
2023-01-19T08:04:34.984Z,708.00
2023-01-19T08:05:33.497Z,720.00
2023-01-19T08:06:33.511Z,712.00
2023-01-19T08:07:33.372Z,720.00
2023-01-19T08:08:34.559Z,740.00
2023-01-19T08:09:33.611Z,776.00
2023-01-19T08:10:33.569Z,792.00
2023-01-19T08:11:33.557Z,820.00
2023-01-19T08:12:33.427Z,848.00
2023-01-19T08:15:02.960Z,876.00
2023-01-19T08:15:05.271Z,916.00
2023-01-19T08:16:05.204Z,936.00
2023-01-19T08:17:05.141Z,972.00
2023-01-19T08:18:05.157Z,996.00
2023-01-19T08:19:05.044Z,1024.00
2023-01-19T08:20:05.272Z,1032.00
2023-01-19T08:21:05.103Z,1072.00
2023-01-19T08:22:05.143Z,1092.00
2023-01-19T08:23:05.239Z,1088.00
2023-01-19T08:24:05.252Z,1028.00
2023-01-19T08:25:05.046Z,1040.00
2023-01-19T08:26:05.034Z,1056.00
2023-01-19T08:27:06.041Z,1084.00
2023-01-19T08:28:05.133Z,1132.00
2023-01-19T08:29:05.032Z,1160.00
2023-01-19T08:30:05.617Z,1212.00
2023-01-19T08:31:18.484Z,1240.00
2023-01-19T08:32:07.190Z,1296.00
2023-01-19T08:33:05.136Z,1308.00
2023-01-19T08:34:05.407Z,1328.00
2023-01-19T08:35:05.398Z,1400.00
2023-01-19T08:36:05.625Z,1428.00
2023-01-19T08:37:05.095Z,1500.00
2023-01-19T08:38:05.083Z,1540.00
2023-01-19T08:39:04.967Z,1608.00
2023-01-19T08:40:04.821Z,1628.00
2023-01-19T08:41:05.421Z,1696.00
2023-01-19T08:42:04.837Z,1752.00
2023-01-19T08:43:05.038Z,1780.00
2023-01-19T08:44:05.035Z,1796.00
2023-01-19T08:45:04.826Z,1864.00
2023-01-19T08:46:05.050Z,1876.00
2023-01-19T08:47:04.857Z,1868.00
2023-01-19T08:48:05.753Z,1868.00
2023-01-19T08:49:04.786Z,1908.00
2023-01-19T08:50:04.789Z,1820.00
2023-01-19T08:51:04.819Z,1700.00
2023-01-19T08:52:04.755Z,1728.00
2023-01-19T08:53:04.755Z,1644.00
2023-01-19T08:54:04.846Z,1560.00
2023-01-19T08:55:04.715Z,1604.00
2023-01-19T08:56:04.715Z,1664.00
2023-01-19T08:57:04.983Z,1844.00
2023-01-19T08:58:04.761Z,1820.00
2023-01-19T08:59:09.879Z,1864.00
2023-01-19T09:00:06.696Z,1964.00
2023-01-19T09:01:04.629Z,1912.00
2023-01-19T09:02:05.404Z,1932.00
2023-01-19T09:03:05.223Z,1924.00
2023-01-19T09:04:05.021Z,1804.00
2023-01-19T09:05:04.705Z,1580.00
2023-01-19T09:06:04.675Z,1432.00
2023-01-19T09:08:04.596Z,1108.00
2023-01-19T09:09:04.800Z,968.00
2023-01-19T09:10:04.665Z,856.00
2023-01-19T09:11:04.562Z,772.00
2023-01-19T09:12:04.588Z,736.00
2023-01-19T09:13:04.725Z,680.00
2023-01-19T09:14:04.547Z,628.00
2023-01-19T09:15:04.605Z,592.00
2023-01-19T09:16:04.776Z,568.00
2023-01-19T09:17:04.587Z,548.00
2023-01-19T09:18:04.636Z,560.00
2023-01-19T09:19:04.658Z,576.00
2023-01-19T09:20:04.479Z,560.00
2023-01-19T09:21:04.448Z,560.00
2023-01-19T09:22:04.542Z,568.00
2023-01-19T09:23:04.636Z,556.00
2023-01-19T09:24:04.442Z,552.00
2023-01-19T09:25:04.635Z,564.00
2023-01-19T09:26:04.619Z,564.00
2023-01-19T09:27:04.432Z,612.00
2023-01-19T09:28:04.453Z,672.00
2023-01-19T09:29:04.333Z,720.00
2023-01-19T09:30:04.518Z,776.00
2023-01-19T09:31:04.487Z,828.00
2023-01-19T09:32:04.431Z,904.00
2023-01-19T09:33:04.565Z,964.00
2023-01-19T09:34:04.553Z,1036.00
2023-01-19T09:35:04.438Z,1096.00
2023-01-19T09:36:04.401Z,1176.00
2023-01-19T09:37:04.419Z,1232.00
2023-01-19T09:38:04.461Z,1268.00
2023-01-19T09:39:04.304Z,1332.00
2023-01-19T09:40:04.359Z,1392.00
2023-01-19T09:41:04.520Z,1420.00
2023-01-19T09:42:04.279Z,1516.00
2023-01-19T09:43:04.270Z,1704.00
2023-01-19T09:44:04.716Z,1876.00
2023-01-19T09:45:04.561Z,2068.00
2023-01-19T09:46:04.320Z,2300.00
2023-01-19T09:47:04.259Z,2516.00
2023-01-19T09:48:04.250Z,2696.00
2023-01-19T09:49:04.237Z,2900.00
2023-01-19T09:50:04.173Z,3160.00
2023-01-19T09:51:04.261Z,3352.00
2023-01-19T09:52:04.305Z,3540.00
2023-01-19T09:53:04.137Z,3608.00
2023-01-19T09:54:04.283Z,3792.00
2023-01-19T09:55:05.076Z,3924.00
2023-01-19T09:56:04.136Z,3928.00
2023-01-19T09:57:04.237Z,3760.00
2023-01-19T09:58:04.427Z,3660.00
2023-01-19T09:59:04.092Z,3584.00
2023-01-19T10:00:04.823Z,3424.00
2023-01-19T10:01:05.066Z,3440.00
2023-01-19T10:02:04.347Z,3328.00
2023-01-19T10:03:04.353Z,3284.00
2023-01-19T10:04:05.188Z,3260.00
2023-01-19T10:05:04.307Z,3204.00
2023-01-19T10:06:03.995Z,2936.00
2023-01-19T10:07:04.034Z,2764.00
2023-01-19T10:08:04.078Z,2692.00
2023-01-19T10:09:04.011Z,2496.00
2023-01-19T10:10:04.054Z,2284.00
2023-01-19T10:11:04.021Z,2140.00
2023-01-19T10:12:03.975Z,2072.00
2023-01-19T10:13:04.136Z,2060.00
2023-01-19T10:14:04.033Z,2060.00
2023-01-19T10:15:03.981Z,2016.00
2023-01-19T10:16:04.016Z,1944.00
2023-01-19T10:17:05.076Z,1856.00
2023-01-19T10:18:04.044Z,1764.00
2023-01-19T10:19:03.996Z,1688.00
2023-01-19T10:20:04.178Z,1584.00
2023-01-19T10:21:05.535Z,1524.00
2023-01-19T10:22:04.956Z,1440.00
2023-01-19T10:23:04.378Z,1404.00
2023-01-19T10:24:05.779Z,1364.00
2023-01-19T10:25:03.887Z,1308.00
2023-01-19T10:26:03.838Z,1280.00
2023-01-19T10:27:03.852Z,1208.00
2023-01-19T10:28:03.801Z,1224.00
2023-01-19T10:29:03.860Z,1204.00
2023-01-19T10:30:04.853Z,1212.00
2023-01-19T10:31:05.265Z,1112.00
2023-01-19T10:32:03.915Z,1088.00
2023-01-19T10:33:04.088Z,1104.00
2023-01-19T10:34:03.809Z,1120.00
2023-01-19T10:35:03.775Z,1048.00
2023-01-19T10:36:04.071Z,1008.00
2023-01-19T10:37:04.325Z,924.00
2023-01-19T10:38:03.761Z,908.00
2023-01-19T10:39:03.801Z,976.00
2023-01-19T10:40:03.743Z,1020.00
2023-01-19T10:41:04.085Z,1088.00
2023-01-19T10:42:03.672Z,1072.00
2023-01-19T10:43:04.172Z,1048.00
2023-01-19T10:44:03.725Z,1168.00
2023-01-19T10:45:03.716Z,1328.00
2023-01-19T10:46:04.097Z,1524.00
2023-01-19T10:47:04.023Z,1596.00
2023-01-19T10:48:03.658Z,1620.00
2023-01-19T10:49:03.672Z,1736.00
2023-01-19T10:50:03.710Z,1688.00
2023-01-19T10:51:03.646Z,1716.00
2023-01-19T10:52:03.668Z,1672.00
2023-01-19T10:53:04.172Z,1768.00
2023-01-19T10:54:03.560Z,1700.00
2023-01-19T10:55:03.536Z,1676.00
2023-01-19T10:56:03.731Z,1864.00
2023-01-19T10:57:03.566Z,2160.00
2023-01-19T10:58:04.862Z,2236.00
2023-01-19T10:59:03.662Z,2224.00
2023-01-19T11:00:03.674Z,2268.00
2023-01-19T11:01:03.757Z,2228.00
2023-01-19T11:02:03.879Z,2320.00
2023-01-19T11:03:03.850Z,2344.00
2023-01-19T11:04:03.531Z,2380.00
2023-01-19T11:05:03.552Z,2328.00
2023-01-19T11:06:03.500Z,2220.00
2023-01-19T11:07:03.587Z,2168.00
2023-01-19T11:08:03.522Z,2144.00
2023-01-19T11:09:03.427Z,2220.00
2023-01-19T11:10:03.476Z,2252.00
2023-01-19T11:11:03.695Z,2228.00
2023-01-19T11:12:03.361Z,2208.00
2023-01-19T11:13:04.103Z,2152.00
2023-01-19T11:14:03.976Z,2128.00
2023-01-19T11:15:03.481Z,2092.00
2023-01-19T11:16:03.638Z,2048.00
2023-01-19T11:17:03.380Z,2004.00
2023-01-19T11:18:03.459Z,1952.00
2023-01-19T11:19:03.413Z,1944.00
2023-01-19T11:20:03.288Z,1928.00
2023-01-19T11:21:04.244Z,1884.00
2023-01-19T11:22:03.289Z,1860.00
2023-01-19T11:23:03.722Z,1828.00
2023-01-19T11:24:03.338Z,1812.00
2023-01-19T11:25:03.574Z,1784.00
2023-01-19T11:26:03.571Z,1744.00
2023-01-19T11:27:03.208Z,1684.00
2023-01-19T11:28:03.442Z,1596.00
2023-01-19T11:29:03.241Z,1500.00
2023-01-19T11:30:03.212Z,1464.00
2023-01-19T11:31:03.300Z,1424.00
2023-01-19T11:32:03.371Z,1424.00
2023-01-19T11:33:03.391Z,1344.00
2023-01-19T11:34:03.148Z,1280.00
2023-01-19T11:35:03.231Z,1264.00
2023-01-19T11:36:03.214Z,1276.00
2023-01-19T11:37:03.513Z,1268.00
2023-01-19T11:38:03.088Z,1240.00
2023-01-19T11:39:04.398Z,1192.00
2023-01-19T11:40:03.104Z,1212.00
2023-01-19T11:41:03.645Z,1232.00
2023-01-19T11:42:03.232Z,1256.00
2023-01-19T11:43:03.495Z,1220.00
2023-01-19T11:44:03.264Z,1164.00
2023-01-19T11:45:03.045Z,1104.00
2023-01-19T11:46:03.095Z,1072.00
2023-01-19T11:47:03.185Z,1036.00
2023-01-19T11:48:03.719Z,972.00
2023-01-19T11:49:03.079Z,960.00
2023-01-19T11:50:03.204Z,976.00
2023-01-19T11:51:03.005Z,960.00
2023-01-19T11:52:03.038Z,960.00
2023-01-19T11:53:02.988Z,988.00
2023-01-19T11:54:02.991Z,960.00
2023-01-19T11:55:03.757Z,936.00
2023-01-19T11:56:03.116Z,896.00
2023-01-19T11:57:02.964Z,924.00
2023-01-19T11:58:03.370Z,940.00
2023-01-19T11:59:02.965Z,948.00
2023-01-19T12:00:02.977Z,1004.00
2023-01-19T12:01:02.846Z,1016.00
2023-01-19T12:02:03.000Z,1076.00
2023-01-19T12:03:02.889Z,1132.00
2023-01-19T12:04:03.048Z,1208.00
2023-01-19T12:05:02.925Z,1228.00
2023-01-19T12:06:02.811Z,1224.00
2023-01-19T12:07:02.855Z,1288.00
2023-01-19T12:08:06.273Z,1280.00
2023-01-19T12:09:03.993Z,1228.00
2023-01-19T12:10:02.773Z,1208.00
2023-01-19T12:11:02.967Z,1160.00
2023-01-19T12:12:02.973Z,1076.00
2023-01-19T12:13:02.850Z,1044.00
2023-01-19T12:14:04.034Z,1048.00
2023-01-19T12:15:03.361Z,1040.00
2023-01-19T12:16:02.947Z,1008.00
2023-01-19T12:17:02.796Z,960.00
2023-01-19T12:18:03.597Z,908.00
2023-01-19T12:19:02.708Z,912.00
2023-01-19T12:20:02.990Z,928.00
2023-01-19T12:21:04.343Z,1012.00
2023-01-19T12:22:03.663Z,1092.00
2023-01-19T12:23:02.662Z,1164.00
2023-01-19T12:24:02.835Z,1244.00
2023-01-19T12:25:03.774Z,1392.00
2023-01-19T12:26:02.655Z,1448.00
2023-01-19T12:27:03.185Z,1548.00
2023-01-19T12:28:02.942Z,1624.00
2023-01-19T12:29:02.653Z,1696.00
2023-01-19T12:30:02.668Z,1748.00
2023-01-19T12:31:02.716Z,1760.00
2023-01-19T12:32:02.730Z,1740.00
2023-01-19T12:33:02.710Z,1724.00
2023-01-19T12:34:02.856Z,1736.00
2023-01-19T12:35:02.677Z,1816.00
2023-01-19T12:36:02.670Z,1912.00
2023-01-19T12:37:03.280Z,2004.00
2023-01-19T12:38:02.467Z,2028.00
2023-01-19T12:39:02.592Z,2048.00
2023-01-19T12:40:02.565Z,2068.00
2023-01-19T12:41:02.854Z,2104.00
2023-01-19T12:42:02.622Z,2124.00
2023-01-19T12:43:02.565Z,2148.00
2023-01-19T12:44:03.033Z,2212.00
2023-01-19T12:45:02.508Z,2300.00
2023-01-19T12:47:29.776Z,2368.00
2023-01-19T12:47:31.530Z,2632.00
2023-01-19T12:48:31.478Z,2752.00
2023-01-19T12:49:33.359Z,2912.00
2023-01-19T12:50:31.734Z,3096.00
2023-01-19T12:51:31.471Z,3288.00
2023-01-19T12:52:31.445Z,3452.00
2023-01-19T12:53:31.381Z,3588.00
2023-01-19T12:54:31.577Z,3708.00
2023-01-19T12:55:31.607Z,3820.00
2023-01-19T12:56:46.712Z,3888.00
2023-01-19T12:57:32.394Z,3940.00
2023-01-19T12:58:31.548Z,3952.00
2023-01-19T12:59:32.035Z,3960.00
2023-01-19T13:00:31.329Z,3988.00
2023-01-19T13:01:36.981Z,3996.00
2023-01-19T13:02:31.353Z,3968.00
2023-01-19T13:03:31.346Z,3904.00
2023-01-19T13:04:33.436Z,3908.00
2023-01-19T13:05:34.309Z,4024.00
2023-01-19T13:06:32.235Z,4116.00
2023-01-19T13:07:31.508Z,4160.00
2023-01-19T13:08:31.293Z,4180.00
2023-01-19T13:09:31.221Z,4188.00
2023-01-19T13:10:32.284Z,4232.00
2023-01-19T13:11:34.607Z,4308.00
2023-01-19T13:12:32.371Z,4404.00
2023-01-19T13:13:31.259Z,4428.00
2023-01-19T13:14:41.241Z,4524.00
2023-01-19T13:15:32.655Z,4652.00
2023-01-19T13:16:31.662Z,4696.00
2023-01-19T13:17:31.512Z,4684.00
2023-01-19T13:18:31.683Z,4628.00
2023-01-19T13:19:31.128Z,4552.00
2023-01-19T13:20:31.304Z,4452.00
2023-01-19T13:21:32.351Z,4276.00
2023-01-19T13:22:34.315Z,4040.00
2023-01-19T13:23:31.327Z,3900.00
2023-01-19T13:24:31.366Z,3768.00
2023-01-19T13:26:52.400Z,3724.00
2023-01-19T13:26:54.275Z,3960.00
2023-01-19T13:27:54.118Z,4152.00
2023-01-19T13:28:54.859Z,4412.00
2023-01-19T13:29:54.086Z,4532.00
2023-01-19T13:30:54.662Z,4544.00
2023-01-19T13:31:55.416Z,4484.00
2023-01-19T13:32:57.581Z,4328.00
2023-01-19T13:33:54.180Z,4224.00
2023-01-19T13:34:56.685Z,4060.00
2023-01-19T13:35:54.070Z,3900.00
2023-01-19T13:40:08.904Z,3564.00
2023-01-19T13:41:19.279Z,3680.00
2023-01-19T13:42:08.179Z,3764.00
2023-01-19T13:44:31.960Z,3792.00
2023-01-19T13:45:55.770Z,3740.00
2023-01-19T13:46:00.430Z,3632.00
2023-01-19T13:47:00.444Z,3544.00
2023-01-19T13:49:27.419Z,3476.00
2023-01-19T13:49:29.413Z,3392.00
2023-01-19T13:50:38.251Z,3344.00
2023-01-19T13:51:30.072Z,3296.00
2023-01-19T13:52:33.366Z,3256.00
2023-01-19T13:53:29.818Z,3232.00
2023-01-19T13:54:31.118Z,3212.00
2023-01-19T13:55:38.111Z,3204.00
2023-01-19T13:56:30.502Z,3208.00
2023-01-19T13:57:30.293Z,3208.00
2023-01-19T13:58:29.140Z,3220.00
2023-01-19T14:01:47.200Z,3232.00
2023-01-19T14:01:54.149Z,3308.00
2023-01-19T14:04:25.485Z,3344.00
2023-01-19T14:04:27.814Z,3372.00
2023-01-19T14:05:29.528Z,3376.00
2023-01-19T14:06:28.674Z,3364.00
2023-01-19T14:07:37.985Z,3340.00
2023-01-19T14:08:29.167Z,3304.00
2023-01-19T14:09:31.451Z,3268.00
2023-01-19T14:10:37.891Z,3220.00
2023-01-19T14:11:29.696Z,3164.00
2023-01-19T14:17:17.547Z,2736.00
2023-01-19T14:17:26.815Z,2476.00
2023-01-19T14:18:32.829Z,2352.00
2023-01-19T14:20:59.225Z,2212.00
2023-01-19T14:21:42.437Z,1936.00
2023-01-19T14:23:14.111Z,1728.00
2023-01-19T14:24:16.182Z,1664.00
2023-01-19T14:25:15.450Z,1644.00
2023-01-19T14:26:16.018Z,1648.00
2023-01-19T14:27:15.373Z,1688.00
2023-01-19T14:28:15.666Z,1772.00
2023-01-19T14:29:15.329Z,1796.00
2023-01-19T14:30:15.579Z,1808.00
2023-01-19T14:31:15.575Z,1840.00
2023-01-19T14:32:15.426Z,1912.00
2023-01-19T14:33:15.684Z,2016.00
2023-01-19T14:34:15.421Z,2008.00
2023-01-19T14:35:15.428Z,1916.00
2023-01-19T14:36:17.673Z,1856.00
2023-01-19T14:37:16.421Z,1792.00
2023-01-19T14:38:16.160Z,1720.00
2023-01-19T14:39:15.488Z,1668.00
2023-01-19T14:40:15.515Z,1608.00
2023-01-19T14:41:15.402Z,1544.00
2023-01-19T14:42:17.433Z,1480.00
2023-01-19T14:43:15.133Z,1444.00
2023-01-19T14:44:15.212Z,1404.00
2023-01-19T14:45:16.096Z,1352.00
2023-01-19T14:46:15.488Z,1304.00
2023-01-19T14:47:15.166Z,1272.00
2023-01-19T14:48:17.863Z,1256.00
2023-01-19T14:49:17.348Z,1260.00
2023-01-19T14:50:15.105Z,1264.00
2023-01-19T14:51:15.360Z,1244.00
2023-01-19T14:52:15.097Z,1224.00
2023-01-19T14:53:15.291Z,1192.00
2023-01-19T14:54:15.076Z,1152.00
2023-01-19T14:55:15.081Z,1116.00
2023-01-19T14:56:16.075Z,1092.00
2023-01-19T14:57:15.016Z,1060.00
2023-01-19T14:58:15.416Z,1040.00
2023-01-19T14:59:15.102Z,1020.00
2023-01-19T15:00:17.299Z,1000.00
2023-01-19T15:04:19.043Z,944.00
2023-01-19T15:05:20.353Z,928.00
2023-01-19T15:06:21.284Z,912.00
2023-01-19T15:07:20.065Z,896.00
2023-01-19T15:08:20.120Z,876.00
2023-01-19T15:09:20.013Z,856.00
2023-01-19T15:10:20.054Z,824.00
2023-01-19T15:11:20.061Z,788.00
2023-01-19T15:12:19.933Z,756.00
2023-01-19T15:13:20.090Z,732.00
2023-01-19T15:14:19.935Z,712.00
2023-01-19T15:15:20.006Z,696.00
2023-01-19T15:16:20.056Z,688.00
2023-01-19T15:17:19.936Z,672.00
2023-01-19T15:18:19.908Z,668.00
2023-01-19T15:19:19.971Z,640.00
2023-01-19T15:20:19.940Z,608.00
2023-01-19T15:21:19.913Z,572.00
2023-01-19T15:22:19.842Z,556.00
2023-01-19T15:23:19.868Z,548.00
2023-01-19T15:24:19.909Z,544.00
2023-01-19T15:25:19.870Z,532.00
2023-01-19T15:26:19.814Z,496.00
2023-01-19T15:27:19.811Z,464.00
2023-01-19T15:28:19.842Z,444.00
2023-01-19T15:29:19.815Z,428.00
2023-01-19T15:30:19.906Z,420.00
2023-01-19T15:31:19.825Z,428.00
2023-01-19T15:32:19.774Z,424.00
2023-01-19T15:33:19.761Z,404.00
2023-01-19T15:34:19.749Z,384.00
2023-01-19T15:35:19.809Z,360.00
2023-01-19T15:36:19.780Z,340.00
2023-01-19T15:37:19.744Z,316.00
2023-01-19T15:38:19.750Z,300.00
2023-01-19T15:39:19.724Z,288.00
2023-01-19T15:40:19.776Z,272.00
2023-01-19T15:41:21.843Z,256.00
2023-01-19T15:42:19.739Z,240.00
2023-01-19T15:43:19.739Z,232.00
2023-01-19T15:44:19.675Z,216.00
2023-01-19T15:45:19.761Z,204.00
2023-01-19T15:46:19.683Z,192.00
2023-01-19T15:47:19.640Z,176.00
2023-01-19T15:48:19.670Z,160.00
2023-01-19T15:49:19.666Z,144.00
2023-01-19T15:50:19.688Z,132.00
2023-01-19T15:51:19.601Z,128.00
2023-01-19T15:52:19.647Z,120.00
2023-01-19T15:53:19.580Z,108.00
2023-01-19T15:54:20.627Z,100.00
2023-01-19T15:55:19.615Z,92.00
2023-01-19T15:56:19.571Z,84.00
2023-01-19T15:57:19.536Z,80.00
2023-01-19T15:58:19.573Z,68.00
2023-01-19T15:59:19.574Z,68.00
2023-01-19T16:00:19.541Z,60.00
2023-01-19T16:01:19.776Z,52.00
2023-01-19T16:02:19.702Z,48.00
2023-01-19T16:03:19.577Z,40.00
2023-01-19T16:04:19.508Z,36.00
2023-01-19T16:05:19.516Z,32.00
2023-01-19T16:06:19.481Z,28.00
2023-01-19T16:07:19.502Z,24.00
2023-01-19T16:08:19.472Z,24.00
2023-01-19T16:09:19.428Z,20.00
2023-01-19T16:10:19.426Z,16.00
2023-01-19T16:11:19.380Z,12.00
2023-01-19T16:12:19.391Z,12.00
2023-01-19T16:13:19.422Z,12.00
2023-01-19T16:14:19.355Z,8.00
2023-01-19T16:15:19.419Z,8.00
2023-01-19T16:16:19.362Z,4.00
2023-01-19T16:17:19.305Z,8.00
2023-01-19T16:18:19.333Z,8.00
2023-01-19T16:19:19.335Z,4.00
2023-01-19T16:20:19.304Z,4.00
2023-01-19T16:21:19.300Z,4.00
2023-01-19T16:22:19.936Z,4.00
2023-01-19T16:23:19.350Z,0.00
2023-01-19T16:24:19.389Z,4.00
2023-01-19T16:25:19.268Z,4.00
2023-01-19T16:26:19.289Z,0.00
2023-01-19T16:27:19.248Z,0.00
2023-01-19T16:28:19.226Z,0.00
2023-01-19T16:29:19.328Z,0.00
2023-01-19T16:30:19.318Z,0.00
2023-01-19T16:31:19.368Z,0.00
2023-01-19T16:32:19.293Z,0.00
2023-01-19T16:33:19.359Z,0.00
2023-01-19T16:34:19.223Z,0.00
2023-01-19T16:35:19.235Z,0.00
2023-01-19T16:36:19.350Z,0.00
2023-01-19T16:37:19.294Z,0.00
2023-01-19T16:38:19.540Z,0.00
2023-01-19T16:39:19.324Z,0.00
2023-01-19T16:40:19.290Z,0.00
2023-01-19T16:41:19.404Z,0.00
2023-01-19T16:42:19.240Z,0.00
2023-01-19T16:43:19.258Z,0.00
2023-01-19T16:44:19.337Z,0.00
2023-01-19T16:45:19.406Z,0.00
2023-01-19T16:46:22.406Z,0.00
2023-01-19T16:48:40.256Z,0.00
2023-01-19T16:48:42.755Z,0.00
2023-01-19T16:49:42.057Z,0.00
2023-01-19T16:50:42.127Z,0.00
2023-01-19T16:51:42.091Z,0.00
2023-01-19T16:52:42.058Z,0.00
2023-01-19T16:53:42.226Z,0.00
2023-01-19T16:54:42.277Z,0.00
2023-01-19T16:55:42.136Z,0.00
2023-01-19T16:56:42.078Z,0.00
2023-01-19T16:57:42.095Z,0.00
2023-01-19T16:58:42.027Z,0.00
2023-01-19T16:59:41.954Z,0.00
2023-01-19T17:00:42.012Z,0.00
2023-01-19T17:01:42.152Z,0.00
2023-01-19T17:02:42.086Z,0.00
2023-01-19T17:03:42.047Z,0.00
2023-01-19T17:04:42.389Z,0.00
2023-01-19T17:05:42.120Z,0.00
2023-01-19T17:06:41.896Z,0.00
2023-01-19T17:07:42.841Z,0.00
2023-01-19T17:08:41.964Z,0.00
2023-01-19T17:09:42.150Z,0.00
2023-01-19T17:10:41.915Z,0.00
2023-01-19T17:11:41.841Z,0.00
2023-01-19T17:12:41.869Z,0.00
2023-01-19T17:13:42.154Z,0.00
2023-01-19T17:14:42.170Z,0.00
2023-01-19T17:15:42.022Z,0.00
2023-01-19T17:16:41.947Z,0.00
2023-01-19T17:17:41.970Z,0.00
2023-01-19T17:18:41.886Z,0.00
2023-01-19T17:19:41.826Z,0.00
2023-01-19T17:20:41.842Z,0.00
2023-01-19T17:21:42.554Z,0.00
2023-01-19T17:22:41.689Z,0.00
2023-01-19T17:23:42.566Z,0.00
2023-01-19T17:24:42.032Z,0.00
2023-01-19T17:25:45.547Z,0.00
2023-01-19T17:26:41.654Z,0.00
2023-01-19T17:27:41.591Z,0.00
2023-01-19T17:28:45.344Z,0.00
2023-01-19T17:29:42.487Z,0.00
2023-01-19T17:30:41.682Z,0.00
2023-01-19T17:31:42.908Z,0.00
2023-01-19T17:32:42.798Z,0.00
2023-01-19T17:33:41.615Z,0.00
2023-01-19T17:34:41.584Z,0.00
2023-01-19T17:35:42.337Z,0.00
2023-01-19T17:36:42.509Z,0.00
2023-01-19T17:37:41.604Z,0.00
2023-01-19T17:38:42.471Z,0.00
2023-01-19T17:39:42.486Z,0.00
2023-01-19T17:40:43.054Z,0.00
2023-01-19T17:41:41.494Z,0.00
2023-01-19T17:42:41.478Z,0.00
2023-01-19T17:43:41.409Z,0.00
2023-01-19T17:44:41.404Z,0.00
2023-01-19T17:45:41.569Z,0.00
2023-01-19T17:46:42.518Z,0.00
2023-01-19T17:47:41.563Z,0.00
2023-01-19T17:48:41.593Z,0.00
2023-01-19T17:49:41.391Z,0.00
2023-01-19T17:50:41.585Z,0.00
2023-01-19T17:51:41.411Z,0.00
2023-01-19T17:52:41.536Z,0.00
2023-01-19T17:53:41.542Z,0.00
2023-01-19T17:54:41.375Z,0.00
2023-01-19T17:55:41.473Z,0.00
2023-01-19T17:56:41.594Z,0.00
2023-01-19T17:57:42.383Z,0.00
2023-01-19T17:58:41.348Z,0.00
2023-01-19T17:59:41.354Z,0.00
2023-01-19T18:00:42.032Z,0.00
2023-01-19T18:01:41.967Z,0.00
2023-01-19T18:02:41.681Z,0.00
2023-01-19T18:03:41.321Z,0.00
2023-01-19T18:04:41.323Z,0.00
2023-01-19T18:05:42.347Z,0.00
2023-01-19T18:06:41.229Z,0.00
2023-01-19T18:07:41.244Z,0.00
2023-01-19T18:08:41.191Z,0.00
2023-01-19T18:09:41.449Z,0.00
2023-01-19T18:10:41.212Z,0.00
2023-01-19T18:11:41.557Z,0.00
2023-01-19T18:12:41.192Z,0.00
2023-01-19T18:13:41.230Z,0.00
2023-01-19T18:14:41.145Z,0.00
2023-01-19T18:15:41.220Z,0.00
2023-01-19T18:16:41.313Z,0.00
2023-01-19T18:17:41.260Z,0.00
2023-01-19T18:18:42.100Z,0.00
2023-01-19T18:19:41.167Z,0.00
2023-01-19T18:20:41.540Z,0.00
2023-01-19T18:21:41.865Z,0.00
2023-01-19T18:22:41.142Z,0.00
2023-01-19T18:23:41.261Z,0.00
2023-01-19T18:24:41.207Z,0.00
2023-01-19T18:25:41.100Z,0.00
2023-01-19T18:26:41.291Z,0.00
2023-01-19T18:27:41.819Z,0.00
2023-01-19T18:28:41.330Z,0.00
2023-01-19T18:29:41.112Z,0.00
2023-01-19T18:30:41.240Z,0.00
2023-01-19T18:31:41.136Z,0.00
2023-01-19T18:32:41.007Z,0.00
2023-01-19T18:33:41.892Z,0.00
2023-01-19T18:34:41.737Z,0.00
2023-01-19T18:35:43.572Z,0.00
2023-01-19T18:36:41.092Z,0.00
2023-01-19T18:37:42.097Z,0.00
2023-01-19T18:38:41.098Z,0.00
2023-01-19T18:39:41.167Z,0.00
2023-01-19T18:40:41.424Z,0.00
2023-01-19T18:41:40.961Z,0.00
2023-01-19T18:42:41.694Z,0.00
2023-01-19T18:43:41.919Z,0.00
2023-01-19T18:44:41.016Z,0.00
2023-01-19T18:45:41.018Z,0.00
2023-01-19T18:46:43.325Z,0.00
2023-01-19T18:47:41.155Z,0.00
2023-01-19T18:48:41.070Z,0.00
2023-01-19T18:49:41.043Z,0.00
2023-01-19T18:50:40.952Z,0.00
2023-01-19T18:51:41.123Z,0.00
2023-01-19T18:52:41.251Z,0.00
2023-01-19T18:53:40.830Z,0.00
2023-01-19T18:54:41.576Z,0.00
2023-01-19T18:55:40.865Z,0.00
2023-01-19T18:56:41.087Z,0.00
2023-01-19T18:57:41.009Z,0.00
2023-01-19T18:58:40.897Z,0.00
2023-01-19T18:59:40.737Z,0.00
2023-01-19T19:00:40.808Z,0.00
2023-01-19T19:01:44.747Z,0.00
2023-01-19T19:02:40.858Z,0.00
2023-01-19T19:03:40.695Z,0.00
2023-01-19T19:04:41.056Z,0.00
2023-01-19T19:05:40.749Z,0.00
2023-01-19T19:06:40.993Z,0.00
2023-01-19T19:07:43.273Z,0.00
2023-01-19T19:08:41.232Z,0.00
2023-01-19T19:09:41.184Z,0.00
2023-01-19T19:10:43.127Z,0.00
2023-01-19T19:11:40.999Z,0.00
2023-01-19T19:12:40.561Z,0.00
2023-01-19T19:13:40.610Z,0.00
2023-01-19T19:14:40.651Z,0.00
2023-01-19T19:15:40.691Z,0.00
2023-01-19T19:16:40.697Z,0.00
2023-01-19T19:17:40.776Z,0.00
2023-01-19T19:23:10.468Z,0.00
2023-01-19T19:24:10.832Z,0.00
2023-01-19T19:25:10.536Z,0.00
2023-01-19T19:26:10.388Z,0.00
2023-01-19T19:27:10.768Z,0.00
2023-01-19T19:28:10.701Z,0.00
2023-01-19T19:29:12.296Z,0.00
2023-01-19T19:30:12.370Z,0.00
2023-01-19T19:31:11.993Z,0.00